Time;durP1;ratioP1;P1;durP2;ratioP2;P2;SDS_P1;SDS_P2;PMS_P1;PMS_P2;Temp;Humidity;BMP_temperature;BMP_pressure;BME280_temperature;BME280_humidity;BME280_pressure;Samples;Min_cycle;Max_cycle;Signal;HPM_P1;HPM_P2
2020/12/01 13:07:04;;;;;;;24.77;4.73;;;;;;;;;;5148360;27;20939;-72
2020/12/01 13:09:31;;;;;;;16.37;4.70;;;;;;;;;;4961464;27;64432;-73
2020/12/01 13:13:35;;;;;;;4.57;4.10;;;23.30;52.60;;;;;;5025710;27;20542;-75
2020/12/01 13:16:01;;;;;;;9.23;4.50;;;23.30;53.10;;;;;;4909136;28;65464;-72
2020/12/01 13:18:45;;;;;;;10.90;4.07;;;23.30;52.60;;;;;;5074369;27;650512;-75
2020/12/01 13:21:11;;;;;;;5.03;4.00;;;23.50;53.10;;;;;;5114926;27;20210;-73
2020/12/01 13:23:37;;;;;;;7.80;4.23;;;23.40;52.40;;;;;;5123157;28;20238;-74
2020/12/01 13:26:04;;;;;;;10.67;4.67;;;23.40;52.00;;;;;;5120584;27;20202;-74
2020/12/01 13:28:30;;;;;;;13.37;4.47;;;23.30;52.10;;;;;;5118711;28;20197;-74
2020/12/01 13:30:56;;;;;;;11.83;4.03;;;23.20;52.20;;;;;;5128283;27;20213;-73
2020/12/01 13:33:22;;;;;;;4.80;4.00;;;23.20;52.10;;;;;;5115492;28;20265;-74
2020/12/01 13:35:49;;;;;;;8.77;3.97;;;23.10;52.10;;;;;;5134510;27;20208;-74
2020/12/01 13:38:15;;;;;;;7.73;3.93;;;23.10;52.10;;;;;;5124011;27;20252;-74
2020/12/01 13:40:41;;;;;;;5.80;4.03;;;23.10;52.40;;;;;;5122403;28;20220;-74
2020/12/01 13:43:08;;;;;;;9.23;4.13;;;23.00;52.70;;;;;;5117759;28;20232;-75
2020/12/01 13:45:34;;;;;;;10.63;4.60;;;23.00;52.50;;;;;;5122500;27;20236;-74
2020/12/01 13:48:00;;;;;;;5.63;4.17;;;23.00;52.80;;;;;;5106904;28;20229;-74
2020/12/01 13:50:27;;;;;;;15.63;4.00;;;23.00;52.80;;;;;;5107542;27;20229;-75
2020/12/01 13:52:54;;;;;;;4.73;3.73;;;22.90;52.70;;;;;;5112933;28;20665;-74
2020/12/01 13:55:22;;;;;;;12.33;4.33;;;22.90;52.90;;;;;;5130594;27;20201;-73
2020/12/01 13:57:48;;;;;;;11.73;4.07;;;22.80;52.90;;;;;;5127592;27;20260;-75
2020/12/01 14:00:17;;;;;;;4.97;3.53;;;22.80;53.30;;;;;;5122919;27;20271;-74
2020/12/01 14:02:43;;;;;;;6.67;4.20;;;22.70;53.40;;;;;;5120422;27;20267;-75
2020/12/01 14:05:09;;;;;;;5.33;3.93;;;22.70;53.40;;;;;;5127431;27;20264;-73
2020/12/01 14:07:35;;;;;;;7.83;4.67;;;22.60;53.40;;;;;;5127348;27;20221;-74
2020/12/01 14:10:03;;;;;;;8.07;3.70;;;22.60;53.40;;;;;;5127015;27;20216;-75
2020/12/01 14:12:29;;;;;;;11.50;4.00;;;22.60;53.40;;;;;;5126985;27;20257;-75
2020/12/01 14:14:55;;;;;;;13.80;4.03;;;22.60;53.50;;;;;;5126829;28;20240;-73
2020/12/01 14:17:21;;;;;;;7.70;4.37;;;22.60;53.50;;;;;;5122444;27;20256;-75
2020/12/01 14:19:47;;;;;;;4.60;3.70;;;22.60;53.40;;;;;;5126199;27;20753;-76
2020/12/01 14:22:13;;;;;;;5.83;3.90;;;22.50;53.40;;;;;;5122824;27;20252;-76
2020/12/01 14:24:39;;;;;;;9.50;4.23;;;22.50;53.30;;;;;;5124749;27;20579;-75
2020/12/01 14:27:06;;;;;;;4.10;3.77;;;22.50;53.50;;;;;;5125924;27;20224;-74
2020/12/01 14:29:32;;;;;;;10.87;3.90;;;22.50;53.40;;;;;;5114747;27;20237;-74
2020/12/01 14:31:58;;;;;;;5.67;3.83;;;22.50;53.30;;;;;;5112575;27;20258;-76
2020/12/01 14:34:24;;;;;;;5.77;4.30;;;22.50;53.10;;;;;;5099923;28;20249;-75
2020/12/01 14:36:51;;;;;;;9.30;4.27;;;22.50;52.80;;;;;;5092112;28;20261;-77
2020/12/01 14:39:21;;;;;;;7.10;4.43;;;22.50;53.10;;;;;;5092476;28;20230;-76
2020/12/01 14:41:58;;;;;;;6.07;4.80;;;22.40;53.00;;;;;;5092418;28;20239;-75
2020/12/01 14:44:25;;;;;;;8.30;5.00;;;22.40;53.00;;;;;;5092113;28;20693;-76
2020/12/01 14:47:21;;;;;;;9.73;4.77;;;22.40;52.60;;;;;;5106144;28;20564;-76
2020/12/01 14:50:03;;;;;;;5.20;4.60;;;22.40;53.40;;;;;;5110720;28;20271;-76
2020/12/01 14:52:35;;;;;;;5.13;4.57;;;22.40;52.90;;;;;;5112606;28;20257;-77
2020/12/01 14:55:14;;;;;;;8.77;4.50;;;22.30;52.90;;;;;;5112082;28;20201;-77
2020/12/01 14:58:02;;;;;;;7.47;4.37;;;22.30;52.90;;;;;;5112513;28;20329;-76
2020/12/01 15:00:35;;;;;;;6.73;4.50;;;22.30;53.10;;;;;;5112282;28;20868;-76
2020/12/01 15:03:41;;;;;;;5.93;4.37;;;22.40;53.10;;;;;;5105529;28;20709;-76
2020/12/01 15:06:19;;;;;;;7.00;4.63;;;22.40;53.20;;;;;;5091909;28;20242;-77
2020/12/01 15:09:05;;;;;;;7.47;4.40;;;22.30;53.30;;;;;;5091914;28;20237;-75
2020/12/01 15:11:52;;;;;;;12.93;4.83;;;22.40;53.40;;;;;;5091300;28;20670;-74
2020/12/01 15:14:18;;;;;;;10.10;4.70;;;22.40;53.60;;;;;;5091808;28;20716;-76
2020/12/01 15:17:18;;;;;;;9.53;4.23;;;22.40;53.80;;;;;;5091703;28;20238;-71
2020/12/01 15:19:46;;;;;;;6.07;4.37;;;22.50;54.30;;;;;;5091688;28;20241;-78
2020/12/01 15:22:22;;;;;;;8.33;4.70;;;22.70;53.90;;;;;;5104996;28;20210;-77
2020/12/01 15:24:52;;;;;;;7.43;3.90;;;22.70;53.50;;;;;;5110718;28;20232;-76
2020/12/01 15:27:23;;;;;;;8.23;3.93;;;22.60;53.30;;;;;;5112078;28;20685;-76
2020/12/01 15:29:50;;;;;;;11.47;4.50;;;22.60;53.40;;;;;;5090927;28;20700;-76
2020/12/01 15:32:17;;;;;;;9.30;4.20;;;22.60;53.30;;;;;;5091370;28;20230;-76
2020/12/01 15:34:43;;;;;;;9.73;3.80;;;22.70;53.40;;;;;;5091498;28;20646;-77
2020/12/01 15:37:12;;;;;;;10.67;4.20;;;22.60;53.20;;;;;;5091502;28;20258;-77
2020/12/01 15:39:38;;;;;;;5.50;4.33;;;22.60;53.40;;;;;;5093906;28;20689;-77
2020/12/01 15:42:05;;;;;;;7.23;3.83;;;22.60;53.30;;;;;;5110945;28;20213;-76
2020/12/01 15:44:31;;;;;;;4.43;4.03;;;22.60;53.30;;;;;;5111061;28;20201;-76
2020/12/01 15:47:04;;;;;;;7.87;4.50;;;22.60;53.20;;;;;;5095148;28;20402;-76
2020/12/01 15:49:31;;;;;;;9.07;4.30;;;22.60;53.40;;;;;;5091064;28;20210;-76
2020/12/01 15:52:07;;;;;;;6.00;4.00;;;22.60;53.40;;;;;;5090657;28;20264;-76
2020/12/01 15:54:51;;;;;;;12.90;4.00;;;22.60;53.50;;;;;;5105180;28;20253;-80
2020/12/01 15:57:50;;;;;;;10.40;4.00;;;22.60;53.80;;;;;;5111400;28;20229;-75
2020/12/01 16:00:43;;;;;;;15.73;4.77;;;22.60;53.80;;;;;;5108832;28;20626;-73
2020/12/01 16:03:18;;;;;;;9.40;4.77;;;22.60;54.30;;;;;;5105500;28;20226;-74
2020/12/01 16:05:57;;;;;;;12.17;5.00;;;22.60;54.30;;;;;;5104969;28;20255;-73
2020/12/01 16:08:54;;;;;;;7.10;5.27;;;22.60;54.50;;;;;;5108752;28;20185;-73
2020/12/01 16:11:42;;;;;;;13.53;5.70;;;22.60;54.40;;;;;;5098659;28;20649;-74
2020/12/01 16:14:18;;;;;;;7.67;5.83;;;22.60;54.70;;;;;;5104319;28;20242;-73
2020/12/01 16:16:49;;;;;;;10.17;5.57;;;22.60;54.30;;;;;;5100086;28;20255;-77
2020/12/01 16:19:22;;;;;;;13.40;6.03;;;22.60;54.40;;;;;;5103510;28;20233;-73
2020/12/01 16:21:51;;;;;;;10.63;5.57;;;22.60;54.20;;;;;;5107848;28;20278;-74
2020/12/01 16:24:20;;;;;;;8.53;5.90;;;22.60;54.50;;;;;;5098237;28;20217;-74
2020/12/01 16:26:56;;;;;;;11.70;5.83;;;22.60;54.30;;;;;;5107147;28;20267;-73
2020/12/01 16:29:39;;;;;;;11.23;6.10;;;22.60;54.20;;;;;;5100595;28;20715;-74
2020/12/01 16:32:05;;;;;;;19.77;6.30;;;22.70;54.50;;;;;;5099021;28;20251;-74
2020/12/01 16:34:31;;;;;;;10.00;5.90;;;22.70;54.40;;;;;;5097123;27;20296;-73
2020/12/01 16:37:26;;;;;;;8.93;5.73;;;22.70;54.40;;;;;;5091519;28;20221;-74
2020/12/01 16:40:00;;;;;;;6.57;5.17;;;22.60;54.00;;;;;;5102737;28;20255;-73
2020/12/01 16:42:41;;;;;;;9.47;5.60;;;22.60;54.00;;;;;;5094340;28;20254;-74
2020/12/01 16:45:19;;;;;;;19.90;6.37;;;22.60;53.70;;;;;;5103217;28;20236;-73
2020/12/01 16:48:03;;;;;;;6.70;5.70;;;22.50;53.50;;;;;;5100303;28;20226;-72
2020/12/01 16:50:41;;;;;;;8.83;5.53;;;22.50;53.40;;;;;;5108034;28;20220;-73
2020/12/01 16:53:28;;;;;;;6.57;5.33;;;22.50;53.40;;;;;;5096485;28;20619;-73
2020/12/01 16:56:00;;;;;;;7.70;5.80;;;22.40;53.20;;;;;;5096768;28;20657;-74
2020/12/01 16:58:37;;;;;;;12.50;8.27;;;22.50;53.10;;;;;;5091970;28;20700;-73
2020/12/01 17:01:18;;;;;;;16.33;12.20;;;22.50;53.10;;;;;;5094240;28;20204;-73
2020/12/01 17:04:30;;;;;;;20.40;18.30;;;22.50;53.10;;;;;;5099587;28;20261;-74
2020/12/01 17:07:11;;;;;;;22.20;19.83;;;22.50;53.10;;;;;;5088466;28;20214;-73
2020/12/01 17:09:39;;;;;;;29.63;20.90;;;22.40;53.00;;;;;;5100653;28;20232;-72
2020/12/01 17:12:36;;;;;;;57.20;29.67;;;22.50;53.00;;;;;;5096631;28;20218;-71
2020/12/01 17:15:16;;;;;;;108.43;46.40;;;22.40;52.80;;;;;;5093009;28;20198;-71
2020/12/01 17:17:51;;;;;;;121.90;56.70;;;22.40;52.90;;;;;;5097656;28;20290;-72
2020/12/01 17:20:17;;;;;;;134.73;62.87;;;22.40;52.80;;;;;;5100964;28;20205;-72
2020/12/01 17:22:46;;;;;;;142.53;63.00;;;22.40;53.00;;;;;;5106036;28;20276;-73
2020/12/01 17:25:18;;;;;;;149.70;66.50;;;22.40;53.00;;;;;;5107746;28;20206;-72
2020/12/01 17:27:45;;;;;;;154.93;68.20;;;22.40;53.00;;;;;;5095803;28;20282;-72
2020/12/01 17:30:34;;;;;;;161.53;72.97;;;22.40;53.00;;;;;;5091131;28;20202;-74
2020/12/01 17:33:12;;;;;;;155.13;72.00;;;22.40;53.00;;;;;;5091778;28;20811;-72
2020/12/01 17:35:48;;;;;;;162.50;70.67;;;22.40;53.00;;;;;;5090934;28;20206;-73
2020/12/01 17:38:20;;;;;;;153.53;73.90;;;22.40;53.00;;;;;;5097690;28;20612;-72
2020/12/01 17:40:59;;;;;;;159.37;77.13;;;22.40;53.00;;;;;;5089762;28;20255;-73
2020/12/01 17:43:41;;;;;;;159.90;73.23;;;22.40;53.00;;;;;;5093131;28;20214;-74
2020/12/01 17:46:14;;;;;;;146.13;73.77;;;22.40;53.00;;;;;;5093420;28;20220;-74
2020/12/01 17:48:45;;;;;;;164.13;76.10;;;22.40;53.20;;;;;;5102447;28;20222;-74
2020/12/01 17:51:18;;;;;;;165.53;76.90;;;22.40;53.10;;;;;;5098416;28;21485;-75
2020/12/01 17:53:52;;;;;;;157.00;74.40;;;22.40;53.40;;;;;;5109578;28;20283;-74
2020/12/01 17:56:19;;;;;;;153.00;72.97;;;22.40;53.40;;;;;;5097181;28;20226;-76
2020/12/01 17:58:45;;;;;;;154.63;74.73;;;22.40;53.40;;;;;;5089252;28;20329;-76
2020/12/01 18:01:12;;;;;;;155.93;76.10;;;22.50;53.60;;;;;;5103009;28;20209;-76
2020/12/01 18:03:38;;;;;;;151.87;75.07;;;22.40;54.00;;;;;;5107909;28;20709;-76
2020/12/01 18:06:06;;;;;;;174.07;81.87;;;22.50;54.10;;;;;;5102294;28;20731;-77
2020/12/01 18:08:34;;;;;;;173.60;88.37;;;22.50;53.90;;;;;;5093027;28;20298;-76
2020/12/01 18:11:23;;;;;;;179.73;92.47;;;22.50;54.20;;;;;;5092787;28;20339;-76
2020/12/01 18:13:58;;;;;;;177.57;91.47;;;22.50;54.30;;;;;;5092943;28;20303;-76
2020/12/01 18:16:36;;;;;;;174.90;90.37;;;22.60;54.50;;;;;;5093115;28;20272;-76
2020/12/01 18:19:17;;;;;;;157.80;82.37;;;22.60;54.70;;;;;;5092638;28;20253;-76
2020/12/01 18:21:56;;;;;;;168.20;82.87;;;22.60;54.70;;;;;;5092798;28;20233;-77
2020/12/01 18:24:34;;;;;;;155.93;80.60;;;22.60;54.70;;;;;;5092865;28;20253;-76
2020/12/01 18:27:13;;;;;;;153.20;79.50;;;22.60;54.70;;;;;;5092692;28;20237;-75
2020/12/01 18:29:45;;;;;;;135.03;68.77;;;22.60;54.70;;;;;;5108484;28;20560;-74
2020/12/01 18:32:18;;;;;;;140.20;69.33;;;22.60;54.70;;;;;;5092477;28;20749;-76
2020/12/01 18:35:02;;;;;;;133.80;68.40;;;22.60;54.70;;;;;;5091477;28;20717;-76
2020/12/01 18:37:31;;;;;;;138.13;66.63;;;22.60;54.70;;;;;;5089763;28;20276;-75
2020/12/01 18:39:58;;;;;;;136.33;67.03;;;22.60;54.50;;;;;;5089378;28;20290;-75
2020/12/01 18:42:28;;;;;;;120.97;63.33;;;22.60;54.70;;;;;;5089713;28;20654;-77
2020/12/01 18:45:00;;;;;;;126.57;61.83;;;22.60;54.70;;;;;;5089831;28;20245;-77
2020/12/01 18:47:29;;;;;;;127.70;59.83;;;22.60;54.70;;;;;;5099309;28;20217;-77
2020/12/01 18:49:55;;;;;;;117.50;57.93;;;22.60;54.70;;;;;;5101036;28;20218;-77
2020/12/01 18:52:23;;;;;;;113.23;57.47;;;22.60;54.70;;;;;;5109625;28;20720;-76
2020/12/01 18:54:52;;;;;;;111.63;56.77;;;22.60;54.70;;;;;;5109868;28;20233;-77
2020/12/01 18:57:18;;;;;;;110.80;56.57;;;22.70;54.70;;;;;;5109718;28;20232;-76
2020/12/01 18:59:45;;;;;;;107.80;54.67;;;22.60;54.70;;;;;;5105991;22;20267;-77
2020/12/01 19:02:11;;;;;;;101.80;52.73;;;22.70;54.70;;;;;;5095310;28;20210;-78
2020/12/01 19:04:38;;;;;;;96.30;50.53;;;22.70;54.70;;;;;;5093182;28;20214;-78
2020/12/01 19:07:04;;;;;;;92.47;49.33;;;22.70;54.60;;;;;;5063383;28;20268;-78
2020/12/01 19:09:31;;;;;;;94.83;49.77;;;22.70;54.50;;;;;;5057839;28;20254;-78
2020/12/01 19:11:58;;;;;;;99.77;49.47;;;22.70;54.50;;;;;;5048307;28;20231;-78
2020/12/01 19:14:24;;;;;;;88.07;45.23;;;22.70;54.50;;;;;;5048620;28;20304;-77
2020/12/01 19:16:55;;;;;;;89.47;46.70;;;22.70;54.50;;;;;;5049495;28;20246;-77
2020/12/01 19:19:21;;;;;;;92.17;46.10;;;22.70;54.50;;;;;;5052360;28;20293;-75
2020/12/01 19:21:48;;;;;;;86.70;44.10;;;22.70;54.70;;;;;;5062738;28;20775;-76
2020/12/01 19:24:15;;;;;;;88.50;43.83;;;22.70;54.50;;;;;;5068057;28;20211;-76
2020/12/01 19:26:41;;;;;;;75.53;41.70;;;22.70;54.40;;;;;;5064658;28;20699;-76
2020/12/01 19:29:08;;;;;;;82.97;42.87;;;22.70;54.40;;;;;;5053879;28;20277;-78
2020/12/01 19:31:34;;;;;;;85.10;41.70;;;22.70;54.30;;;;;;5049164;28;20207;-79
2020/12/01 19:34:01;;;;;;;77.53;41.27;;;22.70;54.80;;;;;;5011784;28;20259;-72
2020/12/01 19:36:27;;;;;;;82.43;41.27;;;22.60;53.30;;;;;;5049556;28;20211;-72
2020/12/01 19:38:55;;;;;;;75.00;38.30;;;22.60;52.80;;;;;;5050220;28;20270;-75
2020/12/01 19:41:21;;;;;;;78.20;39.57;;;22.70;52.90;;;;;;5048512;28;20243;-73
2020/12/01 19:43:47;;;;;;;68.27;37.10;;;22.80;54.10;;;;;;5021829;28;20308;-72
2020/12/01 19:46:13;;;;;;;68.73;36.13;;;22.90;54.60;;;;;;5055261;28;20226;-76
2020/12/01 19:48:39;;;;;;;65.40;35.07;;;23.10;54.90;;;;;;5053919;28;20227;-72
2020/12/01 19:51:07;;;;;;;68.03;34.73;;;23.10;54.40;;;;;;5050061;28;20203;-79
2020/12/01 19:53:33;;;;;;;65.87;34.93;;;23.30;54.90;;;;;;5031871;28;20286;-77
2020/12/01 19:55:59;;;;;;;77.47;35.93;;;23.30;53.70;;;;;;5028557;28;20244;-76
2020/12/01 19:58:25;;;;;;;68.40;34.50;;;23.30;53.90;;;;;;5028108;28;20260;-78
2020/12/01 20:00:51;;;;;;;61.47;32.20;;;23.30;53.90;;;;;;5034168;28;20710;-74
2020/12/01 20:03:17;;;;;;;63.63;32.60;;;23.40;54.10;;;;;;5041022;28;20258;-75
2020/12/01 20:05:43;;;;;;;63.67;31.93;;;23.40;53.80;;;;;;5035447;28;20232;-74
2020/12/01 20:08:11;;;;;;;60.30;31.07;;;23.40;53.60;;;;;;5031286;28;20572;-79
2020/12/01 20:10:37;;;;;;;58.27;30.47;;;23.50;53.80;;;;;;5030302;28;20712;-81
2020/12/01 20:13:03;;;;;;;57.03;30.67;;;23.70;54.00;;;;;;5029046;28;20754;-80
2020/12/01 20:15:29;;;;;;;1567.87;674.60;;;23.60;53.60;;;;;;5029380;28;20236;-82
2020/12/01 20:17:56;;;;;;;1999.90;999.90;;;23.60;53.20;;;;;;5033899;28;20283;-80
2020/12/01 20:20:23;;;;;;;1999.90;999.90;;;23.60;53.40;;;;;;5039470;28;20781;-78
2020/12/01 20:22:49;;;;;;;1999.90;999.90;;;23.60;53.10;;;;;;5029815;28;20259;-75
2020/12/01 20:25:17;;;;;;;1999.90;999.90;;;23.70;52.90;;;;;;5027958;28;20270;-77
2020/12/01 20:27:43;;;;;;;1999.90;999.90;;;23.70;52.80;;;;;;5028575;28;20224;-79
2020/12/01 20:30:14;;;;;;;1999.90;999.90;;;23.50;53.00;;;;;;5033588;28;20258;-80
2020/12/01 20:32:42;;;;;;;1999.90;999.90;;;23.60;52.30;;;;;;5039522;28;20200;-78
2020/12/01 20:35:19;;;;;;;1999.90;999.90;;;23.50;53.00;;;;;;5046119;28;20207;-77
2020/12/01 20:38:30;;;;;;;1999.90;999.90;;;23.60;52.90;;;;;;5049671;28;20269;-78
2020/12/01 20:40:57;;;;;;;1999.90;999.90;;;23.50;53.00;;;;;;5029642;28;20204;-73
2020/12/01 20:43:23;;;;;;;1999.90;999.90;;;23.50;52.90;;;;;;5030433;28;20243;-75
2020/12/01 20:45:49;;;;;;;1999.90;999.90;;;23.40;53.50;;;;;;5031137;28;20242;-78
2020/12/01 20:48:18;;;;;;;1999.90;999.90;;;23.40;53.60;;;;;;5036943;28;20200;-79
2020/12/01 20:50:45;;;;;;;1999.90;999.90;;;23.50;53.70;;;;;;5033078;28;20275;-76
2020/12/01 20:53:12;;;;;;;1999.90;999.90;;;23.60;54.00;;;;;;5047662;28;20196;-76
2020/12/01 20:55:38;;;;;;;1999.90;999.90;;;23.60;53.90;;;;;;5034421;28;20220;-79
2020/12/01 20:58:07;;;;;;;1999.90;999.90;;;23.60;53.90;;;;;;5033082;28;20286;-75
2020/12/01 21:00:39;;;;;;;1999.90;999.90;;;23.60;53.70;;;;;;5030538;28;20271;-75
2020/12/01 21:03:05;;;;;;;1999.90;999.90;;;23.50;53.60;;;;;;5030205;28;20571;-74
2020/12/01 21:05:31;;;;;;;1999.90;999.90;;;23.60;53.90;;;;;;5032524;28;20213;-75
2020/12/01 21:46:45;;;;;;;1999.90;999.90;;;23.00;52.60;;;;;;5078008;27;20591;-73
2020/12/01 21:49:11;;;;;;;1999.90;999.90;;;23.10;54.80;;;;;;5079322;28;20260;-74
2020/12/01 21:51:57;;;;;;;1999.90;999.90;;;23.30;55.00;;;;;;5078190;27;20461;-76
2020/12/01 21:54:40;;;;;;;1999.90;999.90;;;23.30;54.60;;;;;;5050362;28;20283;-73
2020/12/01 21:58:25;;;;;;;1999.90;999.90;;;23.30;52.50;;;;;;5105642;27;20566;-73
2020/12/01 22:01:06;;;;;;;1999.90;999.90;;;23.30;53.70;;;;;;5066102;28;20302;-72
2020/12/01 22:04:06;;;;;;;1999.90;999.90;;;23.40;53.80;;;;;;5068721;28;20211;-68
2020/12/01 22:06:55;;;;;;;1999.90;999.90;;;23.40;53.70;;;;;;5065709;27;20258;-69
2020/12/01 22:10:13;;;;;;;1999.90;999.90;;;23.30;53.20;;;;;;5030889;27;20602;-70
2020/12/01 22:12:45;;;;;;;1999.90;999.90;;;23.30;53.70;;;;;;5034319;28;20454;-70
